Time;durP1;ratioP1;P1;durP2;ratioP2;P2;SDS_P1;SDS_P2;PMS_P1;PMS_P2;Temp;Humidity;BMP_temperature;BMP_pressure;BME280_temperature;BME280_humidity;BME280_pressure;Samples;Min_cycle;Max_cycle;Signal;HPM_P1;HPM_P2
2024/01/28 00:00:21;;;;;;;;;;;;;;;0.25;100.00;102847.09;5042177;28;19962;-83
2024/01/28 00:02:50;;;;;;;;;;;;;;;0.23;100.00;102847.25;5044882;28;19924;-82
2024/01/28 00:05:23;;;;;;;;;;;;;;;0.32;100.00;102850.84;5045120;28;19924;-81
2024/01/28 00:07:56;;;;;;;;;;;;;;;0.20;100.00;102844.91;5041215;28;19924;-83
2024/01/28 00:10:30;;;;;;;;;;;;;;;0.25;100.00;102852.44;5040986;28;19920;-82
2024/01/28 00:12:59;;;;;;;;;;;;;;;0.27;100.00;102853.97;5043618;28;19925;-82
2024/01/28 00:15:32;;;;;;;;;;;;;;;0.19;100.00;102856.59;5042921;28;19931;-82
2024/01/28 00:18:00;;;;;;;;;;;;;;;0.17;100.00;102848.72;5038535;28;20474;-82
2024/01/28 00:20:28;;;;;;;;;;;;;;;0.27;100.00;102850.47;5043819;28;19929;-82
2024/01/28 00:22:55;;;;;;;;;;;;;;;0.21;100.00;102845.72;5041887;28;19931;-82
2024/01/28 00:25:28;;;;;;;;;;;;;;;0.28;100.00;102844.13;5056758;28;20402;-81
2024/01/28 00:28:02;;;;;;;;;;;;;;;0.24;100.00;102845.44;5036052;28;19924;-81
2024/01/28 00:30:32;;;;;;;;;;;;;;;0.11;100.00;102846.69;5053393;28;19928;-82
2024/01/28 00:33:00;;;;;;;;;;;;;;;0.04;100.00;102853.63;5034366;28;19925;-82
2024/01/28 00:35:34;;;;;;;;;;;;;;;-0.01;100.00;102858.66;5041885;28;19925;-82
2024/01/28 00:38:02;;;;;;;;;;;;;;;-0.14;100.00;102851.00;5053949;28;19928;-82
2024/01/28 00:40:31;;;;;;;;;;;;;;;-0.32;100.00;102856.34;5024279;28;20301;-83
2024/01/28 00:42:59;;;;;;;;;;;;;;;-0.43;100.00;102856.59;5047152;28;19948;-83
2024/01/28 00:45:29;;;;;;;;;;;;;;;-0.45;100.00;102853.25;5045885;28;19920;-83
2024/01/28 00:47:58;;;;;;;;;;;;;;;-0.41;100.00;102842.06;5029533;28;19931;-83
2024/01/28 00:50:31;;;;;;;;;;;;;;;-0.41;100.00;102857.31;5024627;28;20106;-82
2024/01/28 00:53:04;;;;;;;;;;;;;;;-0.55;100.00;102850.66;5041840;28;19924;-81
2024/01/28 00:55:32;;;;;;;;;;;;;;;-0.64;100.00;102847.03;5039508;28;19921;-83
2024/01/28 00:58:05;;;;;;;;;;;;;;;-0.66;100.00;102849.03;5038737;28;20007;-81
2024/01/28 01:00:40;;;;;;;;;;;;;;;-0.73;100.00;102839.94;5043593;28;19929;-82
2024/01/28 01:03:14;;;;;;;;;;;;;;;-0.71;100.00;102849.47;5038744;28;19929;-82
2024/01/28 01:05:42;;;;;;;;;;;;;;;-0.73;100.00;102845.28;5027762;28;19931;-81
2024/01/28 01:08:16;;;;;;;;;;;;;;;-0.81;100.00;102848.69;5027301;28;19920;-82
2024/01/28 01:10:44;;;;;;;;;;;;;;;-0.84;100.00;102840.13;5056928;28;19929;-82
2024/01/28 01:13:12;;;;;;;;;;;;;;;-0.95;100.00;102836.69;5045579;28;19929;-82
2024/01/28 01:15:41;;;;;;;;;;;;;;;-0.81;100.00;102842.53;5043086;28;19928;-83
2024/01/28 01:18:14;;;;;;;;;;;;;;;-0.80;100.00;102839.69;5045507;28;19932;-82
2024/01/28 01:20:42;;;;;;;;;;;;;;;-0.77;100.00;102836.72;5048790;28;19932;-82
2024/01/28 01:23:10;;;;;;;;;;;;;;;-0.83;100.00;102841.81;5043575;28;19928;-82
2024/01/28 01:25:43;;;;;;;;;;;;;;;-0.88;100.00;102829.75;5049591;28;19928;-82
2024/01/28 01:28:16;;;;;;;;;;;;;;;-0.89;100.00;102832.56;5050156;28;19920;-82
2024/01/28 01:30:45;;;;;;;;;;;;;;;-0.96;100.00;102826.97;5061342;28;19925;-82
2024/01/28 01:33:18;;;;;;;;;;;;;;;-0.92;100.00;102832.88;5038252;28;19927;-82
2024/01/28 01:35:51;;;;;;;;;;;;;;;-0.93;100.00;102841.88;5047986;28;19929;-82
2024/01/28 01:38:19;;;;;;;;;;;;;;;-0.99;100.00;102840.66;5046076;28;19925;-82
2024/01/28 01:40:52;;;;;;;;;;;;;;;-1.04;100.00;102854.47;5048608;28;19925;-82
2024/01/28 01:43:25;;;;;;;;;;;;;;;-1.09;100.00;102847.88;5047375;28;19931;-81
2024/01/28 01:45:54;;;;;;;;;;;;;;;-1.06;100.00;102843.06;5030787;28;19921;-82
2024/01/28 01:48:28;;;;;;;;;;;;;;;-1.08;100.00;102846.88;5045056;28;19948;-81
2024/01/28 01:50:56;;;;;;;;;;;;;;;-0.99;100.00;102845.16;5047237;28;19927;-82
2024/01/28 01:53:29;;;;;;;;;;;;;;;-0.98;100.00;102846.81;5048051;28;19921;-82
2024/01/28 01:56:02;;;;;;;;;;;;;;;-0.91;100.00;102846.09;5046844;28;19935;-82
2024/01/28 01:58:35;;;;;;;;;;;;;;;-0.93;100.00;102833.88;5049950;28;19921;-81
2024/01/28 02:01:11;;;;;;;;;;;;;;;-0.95;100.00;102831.34;5031541;28;20289;-82
2024/01/28 02:03:40;;;;;;;;;;;;;;;-0.94;100.00;102833.03;5048712;28;20019;-82
2024/01/28 02:06:08;;;;;;;;;;;;;;;-1.06;100.00;102837.72;5041464;28;20289;-82
2024/01/28 02:08:41;;;;;;;;;;;;;;;-1.10;100.00;102840.88;5038483;28;19932;-82
2024/01/28 02:11:09;;;;;;;;;;;;;;;-1.15;100.00;102827.94;5044293;28;20458;-82
2024/01/28 02:13:42;;;;;;;;;;;;;;;-1.12;100.00;102832.13;5041423;28;19928;-81
2024/01/28 02:16:16;;;;;;;;;;;;;;;-1.15;100.00;102822.59;5048839;28;19928;-81
2024/01/28 02:18:50;;;;;;;;;;;;;;;-1.16;100.00;102815.59;5041600;28;19921;-82
2024/01/28 02:21:18;;;;;;;;;;;;;;;-1.20;100.00;102811.53;5045102;28;20535;-81
2024/01/28 02:23:52;;;;;;;;;;;;;;;-1.15;100.00;102813.75;5032218;28;21434;-81
2024/01/28 02:26:20;;;;;;;;;;;;;;;-1.17;100.00;102818.38;5061621;28;19924;-82
2024/01/28 02:28:48;;;;;;;;;;;;;;;-1.20;100.00;102815.03;5030801;28;19928;-82
2024/01/28 02:31:21;;;;;;;;;;;;;;;-1.27;100.00;102811.28;5025590;28;19925;-82
2024/01/28 02:33:54;;;;;;;;;;;;;;;-1.21;100.00;102807.16;5050222;28;20369;-81
2024/01/28 02:36:26;;;;;;;;;;;;;;;-1.26;100.00;102812.09;5038663;28;19920;-80
2024/01/28 02:38:56;;;;;;;;;;;;;;;-1.28;100.00;102803.41;5043923;28;19935;-82
2024/01/28 02:41:29;;;;;;;;;;;;;;;-1.13;100.00;102798.38;5044548;28;19925;-81
2024/01/28 02:43:57;;;;;;;;;;;;;;;-1.07;100.00;102797.81;5035084;28;19920;-81
2024/01/28 02:46:25;;;;;;;;;;;;;;;-1.17;100.00;102800.53;5047293;28;19931;-81
2024/01/28 02:48:54;;;;;;;;;;;;;;;-1.07;100.00;102787.94;5024551;28;19936;-81
2024/01/28 02:51:22;;;;;;;;;;;;;;;-1.11;100.00;102780.38;5041849;28;19925;-81
2024/01/28 02:53:56;;;;;;;;;;;;;;;-1.14;100.00;102786.03;5061785;28;19929;-82
2024/01/28 02:56:25;;;;;;;;;;;;;;;-1.20;100.00;102782.13;5042389;28;19921;-82
2024/01/28 02:58:53;;;;;;;;;;;;;;;-1.29;100.00;102783.03;5030796;28;19925;-80
2024/01/28 03:01:22;;;;;;;;;;;;;;;-1.34;100.00;102778.13;5041437;28;19928;-82
2024/01/28 03:03:50;;;;;;;;;;;;;;;-1.38;100.00;102780.25;5035930;28;19921;-82
2024/01/28 03:06:23;;;;;;;;;;;;;;;-1.43;100.00;102777.19;5044858;28;19929;-81
2024/01/28 03:08:57;;;;;;;;;;;;;;;-1.43;100.00;102776.34;5015894;28;20300;-82
2024/01/28 03:11:30;;;;;;;;;;;;;;;-1.50;100.00;102784.09;5047449;28;19924;-82
2024/01/28 03:13:58;;;;;;;;;;;;;;;-1.61;100.00;102778.97;5038453;28;19928;-81
2024/01/28 03:16:26;;;;;;;;;;;;;;;-1.65;100.00;102777.56;5026792;28;20380;-82
2024/01/28 03:18:59;;;;;;;;;;;;;;;-1.63;100.00;102765.75;5026861;28;19924;-81
2024/01/28 03:21:27;;;;;;;;;;;;;;;-1.71;100.00;102761.16;5042691;28;19924;-82
2024/01/28 03:24:02;;;;;;;;;;;;;;;-1.74;100.00;102758.78;5040197;28;20396;-80
2024/01/28 03:26:35;;;;;;;;;;;;;;;-1.75;100.00;102759.75;5043447;28;19921;-82
2024/01/28 03:29:08;;;;;;;;;;;;;;;-1.84;100.00;102771.31;5034205;28;19932;-82
2024/01/28 03:31:36;;;;;;;;;;;;;;;-1.81;100.00;102760.34;5040068;28;19924;-82
2024/01/28 03:34:09;;;;;;;;;;;;;;;-1.80;100.00;102758.50;5037046;28;19929;-81
2024/01/28 03:36:37;;;;;;;;;;;;;;;-1.82;100.00;102750.66;5045228;28;19996;-81
2024/01/28 03:39:07;;;;;;;;;;;;;;;-1.79;100.00;102747.69;5037628;28;19932;-81
2024/01/28 03:41:40;;;;;;;;;;;;;;;-1.82;100.00;102745.31;5044805;28;20576;-82
2024/01/28 03:44:08;;;;;;;;;;;;;;;-1.74;100.00;102745.44;5044299;28;19936;-81
2024/01/28 03:46:38;;;;;;;;;;;;;;;-1.74;100.00;102737.41;5058056;28;19925;-82
2024/01/28 03:49:06;;;;;;;;;;;;;;;-1.74;100.00;102737.41;5040394;28;19924;-81
2024/01/28 03:51:39;;;;;;;;;;;;;;;-1.82;100.00;102734.66;5028382;28;19921;-81
2024/01/28 03:54:08;;;;;;;;;;;;;;;-1.80;100.00;102737.16;5027622;28;20388;-82
2024/01/28 03:56:41;;;;;;;;;;;;;;;-1.86;100.00;102745.75;5042462;28;20483;-82
2024/01/28 03:59:15;;;;;;;;;;;;;;;-1.90;100.00;102743.38;5061657;28;19921;-82
2024/01/28 04:01:43;;;;;;;;;;;;;;;-1.96;100.00;102751.97;5039850;28;19932;-82
2024/01/28 04:04:16;;;;;;;;;;;;;;;-1.96;100.00;102754.63;5037824;28;20587;-80
2024/01/28 04:06:44;;;;;;;;;;;;;;;-2.05;100.00;102750.16;5058138;28;20016;-81
2024/01/28 04:09:14;;;;;;;;;;;;;;;-2.11;100.00;102756.91;5013123;28;19921;-81
2024/01/28 04:11:48;;;;;;;;;;;;;;;-2.13;100.00;102752.72;5055788;28;19928;-82
2024/01/28 04:14:21;;;;;;;;;;;;;;;-2.17;100.00;102756.66;5033581;28;19921;-82
2024/01/28 04:16:49;;;;;;;;;;;;;;;-2.14;100.00;102751.88;5039503;28;19921;-82
2024/01/28 04:19:22;;;;;;;;;;;;;;;-2.16;100.00;102753.84;5039545;28;19933;-82
2024/01/28 04:21:55;;;;;;;;;;;;;;;-2.23;100.00;102752.75;5036901;28;19924;-81
2024/01/28 04:24:29;;;;;;;;;;;;;;;-2.22;100.00;102755.25;5023132;28;19925;-81
2024/01/28 04:27:03;;;;;;;;;;;;;;;-2.20;100.00;102755.09;5005884;28;20405;-81
2024/01/28 04:29:36;;;;;;;;;;;;;;;-2.15;100.00;102752.03;5036914;28;19925;-81
2024/01/28 04:32:10;;;;;;;;;;;;;;;-2.10;100.00;102744.41;5033671;28;19921;-81
2024/01/28 04:34:38;;;;;;;;;;;;;;;-1.94;100.00;102751.81;5040129;28;19924;-81
2024/01/28 04:37:11;;;;;;;;;;;;;;;-1.92;100.00;102748.03;5038040;28;19921;-81
2024/01/28 04:39:40;;;;;;;;;;;;;;;-1.93;100.00;102742.84;5019323;28;19929;-81
2024/01/28 04:42:08;;;;;;;;;;;;;;;-1.92;100.00;102742.69;5044597;28;20662;-81
2024/01/28 04:44:41;;;;;;;;;;;;;;;-1.93;100.00;102737.50;5025180;28;19925;-82
2024/01/28 04:47:09;;;;;;;;;;;;;;;-1.92;100.00;102742.69;5036222;28;19932;-82
2024/01/28 04:49:42;;;;;;;;;;;;;;;-1.91;100.00;102741.69;5046255;28;20542;-82
2024/01/28 04:52:15;;;;;;;;;;;;;;;-1.94;100.00;102733.13;5035904;28;19935;-82
2024/01/28 04:54:44;;;;;;;;;;;;;;;-1.94;100.00;102739.31;5044203;28;19920;-82
2024/01/28 04:57:12;;;;;;;;;;;;;;;-1.96;100.00;102733.28;5042466;28;19922;-82
2024/01/28 04:59:45;;;;;;;;;;;;;;;-1.94;100.00;102735.81;5042316;28;19963;-81
2024/01/28 05:02:18;;;;;;;;;;;;;;;-1.97;100.00;102736.94;5044693;28;19925;-81
2024/01/28 05:04:46;;;;;;;;;;;;;;;-2.00;100.00;102739.03;5040902;28;19924;-82
2024/01/28 05:07:20;;;;;;;;;;;;;;;-1.96;100.00;102735.09;5041972;28;19931;-81
2024/01/28 05:09:54;;;;;;;;;;;;;;;-1.99;100.00;102733.59;5042126;28;19929;-82
2024/01/28 05:12:27;;;;;;;;;;;;;;;-1.98;100.00;102735.25;5041459;28;19928;-82
2024/01/28 05:15:00;;;;;;;;;;;;;;;-1.97;100.00;102731.59;5039298;28;19920;-82
2024/01/28 05:17:35;;;;;;;;;;;;;;;-1.93;100.00;102724.16;5024902;28;20614;-81
2024/01/28 05:20:04;;;;;;;;;;;;;;;-1.94;100.00;102719.81;5057292;28;19921;-82
2024/01/28 05:22:32;;;;;;;;;;;;;;;-1.95;100.00;102715.44;5035819;28;19927;-82
2024/01/28 05:25:06;;;;;;;;;;;;;;;-1.93;100.00;102716.97;5043718;28;19932;-82
2024/01/28 05:27:40;;;;;;;;;;;;;;;-1.86;100.00;102719.03;5044406;28;19925;-82
2024/01/28 05:30:09;;;;;;;;;;;;;;;-1.91;100.00;102715.00;5041991;28;19925;-82
2024/01/28 05:32:37;;;;;;;;;;;;;;;-1.94;100.00;102723.28;5040386;28;19929;-82
2024/01/28 05:35:10;;;;;;;;;;;;;;;-1.97;100.00;102712.91;5036437;28;19932;-82
2024/01/28 05:37:40;;;;;;;;;;;;;;;-1.97;100.00;102710.25;5038272;28;19924;-81
2024/01/28 05:40:15;;;;;;;;;;;;;;;-1.97;100.00;102712.09;5042076;28;20261;-82
2024/01/28 05:42:48;;;;;;;;;;;;;;;-1.88;100.00;102714.72;5045018;28;19931;-81
2024/01/28 05:45:17;;;;;;;;;;;;;;;-1.94;100.00;102707.28;5038276;28;19932;-81
2024/01/28 05:47:45;;;;;;;;;;;;;;;-1.99;100.00;102704.25;5026243;28;19929;-82
2024/01/28 05:50:13;;;;;;;;;;;;;;;-1.98;100.00;102700.56;5053766;28;20404;-82
2024/01/28 05:52:45;;;;;;;;;;;;;;;-1.99;100.00;102703.38;5038130;28;19920;-82
2024/01/28 05:55:20;;;;;;;;;;;;;;;-2.01;100.00;102706.19;5039610;28;19921;-82
2024/01/28 05:57:54;;;;;;;;;;;;;;;-2.01;100.00;102708.88;5025395;28;19928;-81
2024/01/28 06:00:22;;;;;;;;;;;;;;;-1.98;100.00;102705.91;5053338;28;21823;-82
2024/01/28 06:02:50;;;;;;;;;;;;;;;-1.97;100.00;102704.91;5044613;28;19931;-82
2024/01/28 06:05:23;;;;;;;;;;;;;;;-2.01;100.00;102714.19;5044333;28;19929;-82
2024/01/28 06:07:51;;;;;;;;;;;;;;;-1.97;100.00;102707.59;5042236;28;19928;-82
2024/01/28 06:10:25;;;;;;;;;;;;;;;-1.98;100.00;102702.41;5037973;28;19925;-82
2024/01/28 06:12:58;;;;;;;;;;;;;;;-1.97;100.00;102704.09;5039435;28;19925;-82
2024/01/28 06:15:26;;;;;;;;;;;;;;;-1.96;100.00;102700.41;5045943;28;20371;-81
2024/01/28 06:18:01;;;;;;;;;;;;;;;-1.94;100.00;102704.63;5042455;28;19925;-81
2024/01/28 06:20:35;;;;;;;;;;;;;;;-1.90;100.00;102700.66;5041718;28;19944;-82
2024/01/28 06:23:03;;;;;;;;;;;;;;;-1.93;100.00;102698.31;5038542;28;19928;-82
2024/01/28 06:25:33;;;;;;;;;;;;;;;-1.94;100.00;102691.28;5040252;28;19955;-82
2024/01/28 06:28:00;;;;;;;;;;;;;;;-1.94;100.00;102695.78;5030046;28;19928;-81
2024/01/28 06:30:29;;;;;;;;;;;;;;;-1.89;100.00;102702.34;5045933;28;19924;-81
2024/01/28 06:33:02;;;;;;;;;;;;;;;-1.90;100.00;102700.66;5045504;28;19929;-82
2024/01/28 06:35:30;;;;;;;;;;;;;;;-1.86;100.00;102706.56;5044494;28;20336;-82
2024/01/28 06:38:03;;;;;;;;;;;;;;;-1.85;100.00;102704.72;5045289;28;19943;-82
2024/01/28 06:40:33;;;;;;;;;;;;;;;-1.84;100.00;102695.75;5046345;28;19924;-82
2024/01/28 06:43:05;;;;;;;;;;;;;;;-1.89;100.00;102705.03;5045067;28;19924;-82
2024/01/28 06:45:38;;;;;;;;;;;;;;;-1.91;100.00;102711.50;5040453;28;19925;-82
2024/01/28 06:48:07;;;;;;;;;;;;;;;-1.88;100.00;102722.72;5032850;28;19928;-82
2024/01/28 06:50:35;;;;;;;;;;;;;;;-1.93;100.00;102719.66;5042095;28;19947;-82
2024/01/28 06:53:07;;;;;;;;;;;;;;;-1.94;100.00;102707.28;5043502;28;20289;-82
2024/01/28 06:55:37;;;;;;;;;;;;;;;-1.96;100.00;102703.94;5044996;28;19928;-82
2024/01/28 06:58:05;;;;;;;;;;;;;;;-1.96;100.00;102703.94;5028783;28;19924;-82
2024/01/28 07:00:33;;;;;;;;;;;;;;;-1.88;100.00;102714.72;5042395;28;20269;-81
2024/01/28 07:03:06;;;;;;;;;;;;;;;-1.86;100.00;102714.56;5046623;28;19927;-81
2024/01/28 07:05:39;;;;;;;;;;;;;;;-1.91;100.00;102712.31;5025409;28;19936;-82
2024/01/28 07:08:12;;;;;;;;;;;;;;;-1.92;100.00;102716.00;5043964;28;19928;-81
2024/01/28 07:10:41;;;;;;;;;;;;;;;-1.92;100.00;102718.66;5042377;28;19936;-82
2024/01/28 07:13:09;;;;;;;;;;;;;;;-1.94;100.00;102719.81;5057775;28;20593;-82
2024/01/28 07:15:42;;;;;;;;;;;;;;;-1.92;100.00;102715.13;5044360;28;19924;-82
2024/01/28 07:18:15;;;;;;;;;;;;;;;-1.95;100.00;102724.28;5037520;28;19931;-81
2024/01/28 07:20:48;;;;;;;;;;;;;;;-1.96;100.00;102719.94;5045832;28;19925;-82
2024/01/28 07:23:16;;;;;;;;;;;;;;;-1.96;100.00;102721.75;5053412;28;20557;-82
2024/01/28 07:25:46;;;;;;;;;;;;;;;-1.98;100.00;102718.41;5024374;28;19928;-82
2024/01/28 07:28:17;;;;;;;;;;;;;;;-2.00;100.00;102720.38;5042238;28;20475;-83
2024/01/28 07:30:45;;;;;;;;;;;;;;;-2.03;100.00;102712.66;5052604;28;19935;-82
2024/01/28 07:33:18;;;;;;;;;;;;;;;-2.03;100.00;102708.19;5041484;28;19928;-82
2024/01/28 07:35:51;;;;;;;;;;;;;;;-2.00;100.00;102705.22;5041414;28;19928;-82
2024/01/28 07:38:24;;;;;;;;;;;;;;;-1.95;100.00;102704.78;5058817;28;20301;-83
2024/01/28 07:40:54;;;;;;;;;;;;;;;-1.97;100.00;102696.91;5026427;28;19921;-82
2024/01/28 07:43:27;;;;;;;;;;;;;;;-1.90;100.00;102699.84;5036305;28;19936;-83
2024/01/28 07:45:59;;;;;;;;;;;;;;;-1.89;100.00;102702.34;5043052;28;21611;-82
2024/01/28 07:48:27;;;;;;;;;;;;;;;-1.86;100.00;102700.38;5024831;28;19925;-82
2024/01/28 07:50:56;;;;;;;;;;;;;;;-1.84;100.00;102707.25;5045154;28;19931;-81
2024/01/28 07:53:28;;;;;;;;;;;;;;;-1.74;100.00;102699.19;5058365;28;19940;-83
2024/01/28 07:55:58;;;;;;;;;;;;;;;-1.75;100.00;102684.19;5055300;28;19928;-83
2024/01/28 07:58:31;;;;;;;;;;;;;;;-1.67;100.00;102688.75;5040061;28;19932;-82
2024/01/28 08:00:59;;;;;;;;;;;;;;;-1.65;100.00;102692.13;5043743;28;19924;-82
2024/01/28 08:03:27;;;;;;;;;;;;;;;-1.61;100.00;102694.34;5038997;28;19929;-82
2024/01/28 08:06:04;;;;;;;;;;;;;;;-1.57;100.00;102686.88;5041058;28;19929;-83
2024/01/28 08:08:37;;;;;;;;;;;;;;;-1.56;100.00;102699.22;5027497;28;20400;-83
2024/01/28 08:11:07;;;;;;;;;;;;;;;-1.48;100.00;102685.13;5039211;28;19960;-81
2024/01/28 08:13:39;;;;;;;;;;;;;;;-1.41;100.00;102697.75;5022535;28;19929;-83
2024/01/28 08:16:12;;;;;;;;;;;;;;;-1.34;100.00;102691.81;5038959;28;19921;-83
2024/01/28 08:18:40;;;;;;;;;;;;;;;-1.31;100.00;102689.69;5029903;28;19931;-82
2024/01/28 08:21:13;;;;;;;;;;;;;;;-1.29;100.00;102695.69;5042017;28;19921;-83
2024/01/28 08:23:41;;;;;;;;;;;;;;;-1.22;100.00;102695.94;5047743;28;19940;-83
2024/01/28 08:26:15;;;;;;;;;;;;;;;-1.21;100.00;102694.94;5034124;28;19925;-81
2024/01/28 08:28:44;;;;;;;;;;;;;;;-1.21;100.00;102690.44;5026732;28;19929;-83
2024/01/28 08:31:11;;;;;;;;;;;;;;;-1.17;100.00;102690.97;5023302;28;19921;-83
2024/01/28 08:33:44;;;;;;;;;;;;;;;-1.10;100.00;102691.22;5037374;28;19920;-80
2024/01/28 08:36:17;;;;;;;;;;;;;;;-1.06;100.00;102690.75;5039377;28;19925;-83
2024/01/28 08:38:45;;;;;;;;;;;;;;;-1.03;100.00;102693.13;5055216;28;19925;-83
2024/01/28 08:41:21;;;;;;;;;;;;;;;-0.98;100.00;102698.03;5040643;28;19925;-79
2024/01/28 08:44:00;;;;;;;;;;;;;;;-0.96;100.00;102708.56;5034473;28;19931;-82
2024/01/28 08:46:39;;;;;;;;;;;;;;;-0.95;100.00;102700.38;5020892;28;20408;-83
2024/01/28 08:49:10;;;;;;;;;;;;;;;-0.94;100.00;102699.38;5025382;28;19993;-84
2024/01/28 08:51:43;;;;;;;;;;;;;;;-0.86;100.00;102701.28;5057463;28;19921;-82
2024/01/28 08:54:12;;;;;;;;;;;;;;;-0.94;100.00;102707.41;5038029;28;19929;-80
2024/01/28 08:56:54;;;;;;;;;;;;;;;-0.89;100.00;102705.09;5037358;28;19944;-79
2024/01/28 08:59:48;;;;;;;;;;;;;;;-0.88;100.00;102704.09;5039203;28;20397;-85
2024/01/28 09:02:16;;;;;;;;;;;;;;;-0.87;100.00;102703.13;5039387;28;20378;-84
2024/01/28 09:04:44;;;;;;;;;;;;;;;-0.79;100.00;102701.50;5034726;28;19947;-84
2024/01/28 09:07:17;;;;;;;;;;;;;;;-0.79;100.00;102702.34;5026819;28;19932;-85
2024/01/28 09:09:50;;;;;;;;;;;;;;;-0.74;100.00;102700.03;5022577;28;20781;-85
2024/01/28 09:12:20;;;;;;;;;;;;;;;-0.66;100.00;102706.44;5039515;28;19932;-83
2024/01/28 09:15:03;;;;;;;;;;;;;;;-0.59;100.00;102710.22;5022768;28;19925;-84
2024/01/28 09:17:54;;;;;;;;;;;;;;;-0.58;100.00;102711.84;5022177;28;19921;-86
2024/01/28 09:20:22;;;;;;;;;;;;;;;-0.60;100.00;102709.34;5036378;28;19940;-85
2024/01/28 09:22:52;;;;;;;;;;;;;;;-0.54;100.00;102710.56;5032877;28;19925;-83
2024/01/28 09:25:26;;;;;;;;;;;;;;;-0.37;100.00;102711.53;5035948;28;19925;-85
2024/01/28 09:28:00;;;;;;;;;;;;;;;-0.30;100.00;102717.06;5037473;28;19925;-84
2024/01/28 09:30:28;;;;;;;;;;;;;;;-0.27;100.00;102712.25;5042081;28;19924;-82
2024/01/28 09:33:01;;;;;;;;;;;;;;;-0.19;100.00;102711.47;5032469;28;19924;-84
2024/01/28 09:35:34;;;;;;;;;;;;;;;-0.10;100.00;102707.84;5042412;28;19920;-85
2024/01/28 09:38:02;;;;;;;;;;;;;;;-0.03;100.00;102703.53;5041684;28;20703;-84
2024/01/28 09:40:35;;;;;;;;;;;;;;;0.01;100.00;102703.22;5040673;28;19932;-84
2024/01/28 09:43:14;;;;;;;;;;;;;;;0.09;100.00;102703.25;5043789;28;19921;-83
2024/01/28 09:45:42;;;;;;;;;;;;;;;0.19;100.00;102701.28;5038957;28;19927;-82
2024/01/28 09:48:12;;;;;;;;;;;;;;;0.27;100.00;102697.81;5059954;28;19975;-84
2024/01/28 09:50:40;;;;;;;;;;;;;;;0.27;100.00;102701.31;5042577;28;19925;-83
2024/01/28 09:53:10;;;;;;;;;;;;;;;0.32;100.00;102696.31;5038799;28;19928;-85
2024/01/28 09:55:43;;;;;;;;;;;;;;;0.34;100.00;102690.81;5009768;28;19933;-85
2024/01/28 09:58:12;;;;;;;;;;;;;;;0.38;100.00;102692.16;5035333;28;19935;-82
2024/01/28 10:00:46;;;;;;;;;;;;;;;0.42;100.00;102698.88;5016710;28;19928;-84
2024/01/28 10:03:20;;;;;;;;;;;;;;;0.43;100.00;102702.38;5032855;28;19936;-82
2024/01/28 10:05:53;;;;;;;;;;;;;;;0.42;100.00;102696.19;5027420;28;19921;-83
2024/01/28 10:08:26;;;;;;;;;;;;;;;0.56;100.00;102696.56;5008541;28;20684;-83
2024/01/28 10:11:01;;;;;;;;;;;;;;;0.61;100.00;102691.56;5023678;28;19928;-83
2024/01/28 10:13:35;;;;;;;;;;;;;;;0.62;100.00;102683.38;5030088;28;19929;-84
2024/01/28 10:16:08;;;;;;;;;;;;;;;0.70;100.00;102679.84;5003453;28;19935;-82
2024/01/28 10:18:41;;;;;;;;;;;;;;;0.76;100.00;102673.84;5009713;28;19944;-83
2024/01/28 10:21:14;;;;;;;;;;;;;;;0.80;100.00;102674.34;5030556;28;19936;-85
2024/01/28 10:23:43;;;;;;;;;;;;;;;0.84;100.00;102668.50;5025660;28;20304;-83
2024/01/28 10:26:16;;;;;;;;;;;;;;;0.95;100.00;102667.34;5041026;28;19928;-84
2024/01/28 10:28:51;;;;;;;;;;;;;;;1.02;100.00;102660.31;5017868;28;19951;-82
2024/01/28 10:31:22;;;;;;;;;;;;;;;1.05;100.00;102658.28;5033570;28;20527;-83
2024/01/28 10:33:55;;;;;;;;;;;;;;;1.26;100.00;102645.19;5041163;28;20804;-84
2024/01/28 10:36:28;;;;;;;;;;;;;;;1.27;100.00;102648.72;5005750;28;19928;-82
2024/01/28 10:39:03;;;;;;;;;;;;;;;1.35;100.00;102651.38;5046804;28;19936;-86
2024/01/28 10:41:39;;;;;;;;;;;;;;;1.40;100.00;102653.59;5045795;28;19928;-84
2024/01/28 10:44:13;;;;;;;;;;;;;;;1.47;100.00;102641.97;5010775;28;20395;-85
2024/01/28 10:46:44;;;;;;;;;;;;;;;1.65;100.00;102638.25;5036773;28;19929;-84
2024/01/28 10:49:12;;;;;;;;;;;;;;;1.64;100.00;102641.94;5021227;28;19928;-84
2024/01/28 10:51:46;;;;;;;;;;;;;;;1.72;100.00;102641.09;5017972;28;20461;-84
2024/01/28 10:54:15;;;;;;;;;;;;;;;1.76;100.00;102639.75;5008239;28;19924;-83
2024/01/28 10:56:43;;;;;;;;;;;;;;;1.80;100.00;102639.22;5004340;28;19936;-83
2024/01/28 10:59:12;;;;;;;;;;;;;;;1.90;100.00;102635.50;5019777;28;19929;-84
2024/01/28 11:01:41;;;;;;;;;;;;;;;1.97;100.00;102633.78;5022630;28;19928;-82
2024/01/28 11:04:09;;;;;;;;;;;;;;;2.00;100.00;102628.06;5022442;28;19936;-82
2024/01/28 11:06:37;;;;;;;;;;;;;;;2.02;100.00;102626.06;5019550;28;19928;-82
2024/01/28 11:09:05;;;;;;;;;;;;;;;2.07;100.00;102625.50;5015093;28;20476;-81
2024/01/28 11:11:38;;;;;;;;;;;;;;;2.21;100.00;102611.34;5024199;28;19929;-81
2024/01/28 11:14:08;;;;;;;;;;;;;;;2.13;100.00;102616.78;5017123;28;19925;-83
2024/01/28 11:16:37;;;;;;;;;;;;;;;2.23;100.00;102603.94;5003457;28;21534;-84
2024/01/28 11:19:14;;;;;;;;;;;;;;;2.22;100.00;102604.94;5026796;28;20495;-83
2024/01/28 11:21:52;;;;;;;;;;;;;;;2.38;100.00;102594.09;5022195;28;20278;-83
2024/01/28 11:24:25;;;;;;;;;;;;;;;2.48;100.00;102590.34;5003915;28;19936;-83
2024/01/28 11:26:56;;;;;;;;;;;;;;;2.51;100.00;102590.00;5023029;28;19920;-84
2024/01/28 11:29:32;;;;;;;;;;;;;;;2.67;100.00;102591.75;5025650;28;19928;-82
2024/01/28 11:32:03;;;;;;;;;;;;;;;2.71;100.00;102587.69;5027873;28;21339;-84
2024/01/28 11:34:32;;;;;;;;;;;;;;;2.71;100.00;102582.31;5020618;28;19929;-81
2024/01/28 11:37:00;;;;;;;;;;;;;;;2.77;100.00;102584.25;5029339;28;20617;-82
2024/01/28 11:39:36;;;;;;;;;;;;;;;2.88;100.00;102580.31;5023661;28;20008;-84
2024/01/28 11:42:09;;;;;;;;;;;;;;;2.93;100.00;102572.53;5021053;28;19930;-82
2024/01/28 11:44:38;;;;;;;;;;;;;;;3.00;100.00;102572.66;5029952;28;19960;-81
2024/01/28 11:47:07;;;;;;;;;;;;;;;3.11;100.00;102555.19;5036103;28;19925;-81
2024/01/28 11:49:36;;;;;;;;;;;;;;;3.08;100.00;102555.56;5026743;28;20521;-81
2024/01/28 11:52:05;;;;;;;;;;;;;;;3.15;100.00;102560.03;5024805;28;19999;-84
2024/01/28 11:54:37;;;;;;;;;;;;;;;3.16;100.00;102563.56;5007439;28;19932;-82
2024/01/28 11:57:10;;;;;;;;;;;;;;;3.30;100.00;102556.53;5020237;28;19925;-80
2024/01/28 11:59:45;;;;;;;;;;;;;;;3.30;100.00;102543.91;5023686;28;19928;-81
2024/01/28 12:02:14;;;;;;;;;;;;;;;3.39;100.00;102539.28;5026211;28;19932;-82
2024/01/28 12:04:49;;;;;;;;;;;;;;;3.35;100.00;102527.22;5027945;28;19932;-81
2024/01/28 12:07:22;;;;;;;;;;;;;;;3.56;100.00;102521.06;5014320;28;20091;-81
2024/01/28 12:09:57;;;;;;;;;;;;;;;3.50;100.00;102514.56;5029270;28;19932;-80
2024/01/28 12:12:25;;;;;;;;;;;;;;;3.58;100.00;102513.66;5041507;28;21189;-80
2024/01/28 12:14:58;;;;;;;;;;;;;;;3.70;100.00;102513.97;5005419;28;20444;-80
2024/01/28 12:17:26;;;;;;;;;;;;;;;3.71;100.00;102504.88;5028669;28;19929;-81
2024/01/28 12:20:00;;;;;;;;;;;;;;;3.83;100.00;102513.31;5024855;28;20652;-80
2024/01/28 12:22:28;;;;;;;;;;;;;;;3.90;100.00;102498.88;5013717;28;19936;-80
2024/01/28 12:25:06;;;;;;;;;;;;;;;3.85;100.00;102500.47;5025388;28;20574;-80
2024/01/28 12:27:40;;;;;;;;;;;;;;;3.84;100.00;102496.13;5010175;28;21265;-80
2024/01/28 12:30:13;;;;;;;;;;;;;;;3.89;100.00;102493.69;5026159;28;19929;-80
2024/01/28 12:32:47;;;;;;;;;;;;;;;4.01;100.00;102500.25;5016821;28;19928;-80
2024/01/28 12:35:16;;;;;;;;;;;;;;;4.07;100.00;102502.19;5016120;28;20455;-80
2024/01/28 12:37:44;;;;;;;;;;;;;;;4.00;100.00;102501.28;5022492;28;19936;-80
2024/01/28 12:40:17;;;;;;;;;;;;;;;3.96;100.00;102508.06;5024586;28;19932;-80
2024/01/28 12:42:45;;;;;;;;;;;;;;;3.99;100.00;102494.22;5022652;28;19924;-81
2024/01/28 12:45:21;;;;;;;;;;;;;;;4.06;100.00;102488.88;5018732;28;20756;-81
2024/01/28 12:47:54;;;;;;;;;;;;;;;4.03;100.00;102487.44;5010776;28;19935;-79
2024/01/28 12:50:23;;;;;;;;;;;;;;;4.00;100.00;102484.28;5027404;28;19920;-81